sensor_id;sensor_type;location;lat;lon;timestamp;temperature;humidity
9901;DHT22;4989;48.772;9.154;2023-08-21T07:54:45;31.50;65.10
9901;DHT22;4989;48.772;9.154;2023-08-21T07:59:47;32.60;67.00
9901;DHT22;4989;48.772;9.154;2023-08-21T08:04:49;32.90;66.10
9901;DHT22;4989;48.772;9.154;2023-08-21T08:09:51;33.20;65.60
9901;DHT22;4989;48.772;9.154;2023-08-21T08:14:53;33.40;65.10
9901;DHT22;4989;48.772;9.154;2023-08-21T08:19:55;33.60;64.60
9901;DHT22;4989;48.772;9.154;2023-08-21T08:24:57;33.90;64.10
9901;DHT22;4989;48.772;9.154;2023-08-21T08:30:00;34.20;63.70
9901;DHT22;4989;48.772;9.154;2023-08-21T08:35:02;34.40;63.60
9901;DHT22;4989;48.772;9.154;2023-08-21T08:40:05;34.50;62.40
9901;DHT22;4989;48.772;9.154;2023-08-21T08:45:12;34.50;61.70
9901;DHT22;4989;48.772;9.154;2023-08-21T08:50:15;34.40;61.90
9901;DHT22;4989;48.772;9.154;2023-08-21T08:55:19;34.30;62.20
9901;DHT22;4989;48.772;9.154;2023-08-21T09:00:21;34.50;61.30
9901;DHT22;4989;48.772;9.154;2023-08-21T09:05:24;34.80;61.30
9901;DHT22;4989;48.772;9.154;2023-08-21T09:10:26;35.20;60.40
9901;DHT22;4989;48.772;9.154;2023-08-21T09:15:28;35.40;60.40
9901;DHT22;4989;48.772;9.154;2023-08-21T09:20:43;35.70;58.80
9901;DHT22;4989;48.772;9.154;2023-08-21T09:25:47;35.90;58.40
9901;DHT22;4989;48.772;9.154;2023-08-21T09:30:52;36.30;58.10
9901;DHT22;4989;48.772;9.154;2023-08-21T09:35:55;36.60;55.90
9901;DHT22;4989;48.772;9.154;2023-08-21T09:40:59;36.50;56.60
9901;DHT22;4989;48.772;9.154;2023-08-21T09:46:01;37.10;54.70
9901;DHT22;4989;48.772;9.154;2023-08-21T09:51:03;37.40;55.00
9901;DHT22;4989;48.772;9.154;2023-08-21T09:56:06;37.90;53.90
9901;DHT22;4989;48.772;9.154;2023-08-21T10:01:15;38.20;53.60
9901;DHT22;4989;48.772;9.154;2023-08-21T10:06:20;38.50;52.80
9901;DHT22;4989;48.772;9.154;2023-08-21T10:11:26;38.50;51.90
9901;DHT22;4989;48.772;9.154;2023-08-21T10:16:30;38.50;53.60
9901;DHT22;4989;48.772;9.154;2023-08-21T10:21:36;39.10;52.50
9901;DHT22;4989;48.772;9.154;2023-08-21T10:26:41;39.60;52.00
9901;DHT22;4989;48.772;9.154;2023-08-21T10:32:02;40.00;51.00
9901;DHT22;4989;48.772;9.154;2023-08-21T10:37:10;40.60;50.00
9901;DHT22;4989;48.772;9.154;2023-08-21T10:42:14;41.00;49.30
9901;DHT22;4989;48.772;9.154;2023-08-21T10:47:30;40.40;49.20
9901;DHT22;4989;48.772;9.154;2023-08-21T10:52:39;40.00;50.30
9901;DHT22;4989;48.772;9.154;2023-08-21T10:57:50;41.20;49.10
9901;DHT22;4989;48.772;9.154;2023-08-21T11:02:52;41.90;48.30
9901;DHT22;4989;48.772;9.154;2023-08-21T11:07:55;42.50;48.30
9901;DHT22;4989;48.772;9.154;2023-08-21T11:12:58;42.70;47.90
9901;DHT22;4989;48.772;9.154;2023-08-21T11:18:02;42.80;47.50
9901;DHT22;4989;48.772;9.154;2023-08-21T11:23:06;43.30;47.10
9901;DHT22;4989;48.772;9.154;2023-08-21T11:28:16;42.70;45.80
9901;DHT22;4989;48.772;9.154;2023-08-21T11:33:18;43.30;46.90
9901;DHT22;4989;48.772;9.154;2023-08-21T11:38:22;44.30;45.40
9901;DHT22;4989;48.772;9.154;2023-08-21T11:43:35;44.00;45.10
9901;DHT22;4989;48.772;9.154;2023-08-21T11:48:41;44.30;44.70
9901;DHT22;4989;48.772;9.154;2023-08-21T11:53:47;44.80;44.70
9901;DHT22;4989;48.772;9.154;2023-08-21T11:58:50;42.60;45.50
9901;DHT22;4989;48.772;9.154;2023-08-21T12:03:53;41.00;47.30
9901;DHT22;4989;48.772;9.154;2023-08-21T12:08:58;41.70;47.10
9901;DHT22;4989;48.772;9.154;2023-08-21T12:14:02;42.90;45.80
9901;DHT22;4989;48.772;9.154;2023-08-21T12:19:04;41.70;46.70
9901;DHT22;4989;48.772;9.154;2023-08-21T12:24:06;42.50;47.10
9901;DHT22;4989;48.772;9.154;2023-08-21T12:29:09;43.40;45.70
9901;DHT22;4989;48.772;9.154;2023-08-21T12:34:11;42.80;45.80
9901;DHT22;4989;48.772;9.154;2023-08-21T12:39:13;41.70;46.30
9901;DHT22;4989;48.772;9.154;2023-08-21T12:44:18;42.10;45.90
9901;DHT22;4989;48.772;9.154;2023-08-21T12:49:20;41.00;46.90
9901;DHT22;4989;48.772;9.154;2023-08-21T12:54:22;39.90;47.80
9901;DHT22;4989;48.772;9.154;2023-08-21T12:59:25;39.80;47.60
9901;DHT22;4989;48.772;9.154;2023-08-21T13:04:27;39.30;48.80
9901;DHT22;4989;48.772;9.154;2023-08-21T13:09:30;39.40;48.20
9901;DHT22;4989;48.772;9.154;2023-08-21T13:14:32;39.40;48.70
9901;DHT22;4989;48.772;9.154;2023-08-21T13:19:35;39.50;49.20
9901;DHT22;4989;48.772;9.154;2023-08-21T13:24:37;39.80;48.40
9901;DHT22;4989;48.772;9.154;2023-08-21T13:29:46;39.50;48.50
9901;DHT22;4989;48.772;9.154;2023-08-21T13:34:49;39.40;48.50
9901;DHT22;4989;48.772;9.154;2023-08-21T13:39:51;39.60;48.20
9901;DHT22;4989;48.772;9.154;2023-08-21T13:44:53;40.80;47.60
9901;DHT22;4989;48.772;9.154;2023-08-21T13:49:55;41.50;45.20
9901;DHT22;4989;48.772;9.154;2023-08-21T13:54:58;41.40;46.60
9901;DHT22;4989;48.772;9.154;2023-08-21T14:00:05;40.90;46.80
9901;DHT22;4989;48.772;9.154;2023-08-21T14:05:10;41.40;47.00
9901;DHT22;4989;48.772;9.154;2023-08-21T14:10:13;41.00;46.80
9901;DHT22;4989;48.772;9.154;2023-08-21T14:15:16;40.00;47.80
9901;DHT22;4989;48.772;9.154;2023-08-21T14:20:19;39.90;48.50
9901;DHT22;4989;48.772;9.154;2023-08-21T14:25:22;40.10;48.00
9901;DHT22;4989;48.772;9.154;2023-08-21T14:30:25;39.60;48.30
9901;DHT22;4989;48.772;9.154;2023-08-21T14:35:27;40.10;47.00
9901;DHT22;4989;48.772;9.154;2023-08-21T14:40:29;40.50;46.90
9901;DHT22;4989;48.772;9.154;2023-08-21T14:45:32;41.00;46.90
9901;DHT22;4989;48.772;9.154;2023-08-21T14:50:34;41.20;46.80
9901;DHT22;4989;48.772;9.154;2023-08-21T14:55:36;41.00;46.50
9901;DHT22;4989;48.772;9.154;2023-08-21T15:00:39;40.60;46.40
9901;DHT22;4989;48.772;9.154;2023-08-21T15:05:42;40.80;47.30
9901;DHT22;4989;48.772;9.154;2023-08-21T15:10:44;40.80;46.30
9901;DHT22;4989;48.772;9.154;2023-08-21T15:15:46;40.60;46.20
9901;DHT22;4989;48.772;9.154;2023-08-21T15:20:49;40.60;47.10
9901;DHT22;4989;48.772;9.154;2023-08-21T15:25:52;40.40;47.50
9901;DHT22;4989;48.772;9.154;2023-08-21T15:30:54;40.00;47.60
9901;DHT22;4989;48.772;9.154;2023-08-21T15:35:56;39.80;48.50
9901;DHT22;4989;48.772;9.154;2023-08-21T15:40:58;39.70;48.20
9901;DHT22;4989;48.772;9.154;2023-08-21T15:46:03;39.60;48.60
9901;DHT22;4989;48.772;9.154;2023-08-21T15:51:09;39.40;47.30
9901;DHT22;4989;48.772;9.154;2023-08-21T15:56:11;39.30;48.80
9901;DHT22;4989;48.772;9.154;2023-08-21T16:01:15;39.00;47.70
9901;DHT22;4989;48.772;9.154;2023-08-21T16:06:17;38.70;48.60
9901;DHT22;4989;48.772;9.154;2023-08-21T16:11:19;38.50;49.10
9901;DHT22;4989;48.772;9.154;2023-08-21T16:16:21;38.20;49.30
9901;DHT22;4989;48.772;9.154;2023-08-21T16:21:24;38.00;49.90
9901;DHT22;4989;48.772;9.154;2023-08-21T16:26:26;37.70;50.20
9901;DHT22;4989;48.772;9.154;2023-08-21T16:31:28;37.60;50.10
9901;DHT22;4989;48.772;9.154;2023-08-21T16:36:30;37.40;51.30
9901;DHT22;4989;48.772;9.154;2023-08-21T16:41:33;37.30;50.80
9901;DHT22;4989;48.772;9.154;2023-08-21T16:46:35;37.10;51.00
9901;DHT22;4989;48.772;9.154;2023-08-21T16:51:38;36.80;50.90
9901;DHT22;4989;48.772;9.154;2023-08-21T16:56:40;36.60;51.50
9901;DHT22;4989;48.772;9.154;2023-08-21T17:01:42;36.40;51.70
9901;DHT22;4989;48.772;9.154;2023-08-21T17:06:45;36.40;50.70
9901;DHT22;4989;48.772;9.154;2023-08-21T17:11:47;36.20;53.00
9901;DHT22;4989;48.772;9.154;2023-08-21T17:16:49;36.10;52.30
9901;DHT22;4989;48.772;9.154;2023-08-21T17:21:51;36.00;52.50
9901;DHT22;4989;48.772;9.154;2023-08-21T17:26:53;35.90;52.20
9901;DHT22;4989;48.772;9.154;2023-08-21T17:31:58;35.70;52.60
9901;DHT22;4989;48.772;9.154;2023-08-21T17:37:00;35.60;53.00
9901;DHT22;4989;48.772;9.154;2023-08-21T17:42:03;35.50;53.40
9901;DHT22;4989;48.772;9.154;2023-08-21T17:47:06;35.40;53.40
9901;DHT22;4989;48.772;9.154;2023-08-21T17:52:08;35.30;54.20
9901;DHT22;4989;48.772;9.154;2023-08-21T17:57:10;35.30;53.60
9901;DHT22;4989;48.772;9.154;2023-08-21T18:02:12;35.30;54.10
9901;DHT22;4989;48.772;9.154;2023-08-21T18:07:28;35.10;54.50
9901;DHT22;4989;48.772;9.154;2023-08-21T18:12:30;35.00;54.80
9901;DHT22;4989;48.772;9.154;2023-08-21T18:17:32;35.00;55.50
9901;DHT22;4989;48.772;9.154;2023-08-21T18:22:34;34.80;54.60
9901;DHT22;4989;48.772;9.154;2023-08-21T18:27:36;34.70;55.80
9901;DHT22;4989;48.772;9.154;2023-08-21T18:32:40;34.70;56.00
9901;DHT22;4989;48.772;9.154;2023-08-21T18:37:42;34.60;56.40
9901;DHT22;4989;48.772;9.154;2023-08-21T18:42:44;34.50;56.30
9901;DHT22;4989;48.772;9.154;2023-08-21T18:47:47;34.30;56.30
9901;DHT22;4989;48.772;9.154;2023-08-21T18:52:50;34.30;56.20
9901;DHT22;4989;48.772;9.154;2023-08-21T18:57:52;34.20;56.70
9901;DHT22;4989;48.772;9.154;2023-08-21T19:02:55;34.10;57.70
9901;DHT22;4989;48.772;9.154;2023-08-21T19:07:58;34.00;58.00
9901;DHT22;4989;48.772;9.154;2023-08-21T19:13:01;33.90;58.40
9901;DHT22;4989;48.772;9.154;2023-08-21T19:18:04;33.80;58.60
9901;DHT22;4989;48.772;9.154;2023-08-21T19:23:07;33.70;58.30
9901;DHT22;4989;48.772;9.154;2023-08-21T19:28:10;33.60;58.70
9901;DHT22;4989;48.772;9.154;2023-08-21T19:33:12;33.30;60.10
9901;DHT22;4989;48.772;9.154;2023-08-21T19:38:15;33.40;59.90
9901;DHT22;4989;48.772;9.154;2023-08-21T19:43:17;33.40;59.80
9901;DHT22;4989;48.772;9.154;2023-08-21T19:48:19;33.40;60.20
9901;DHT22;4989;48.772;9.154;2023-08-21T19:53:21;33.20;60.30
9901;DHT22;4989;48.772;9.154;2023-08-21T19:58:24;33.20;60.50
9901;DHT22;4989;48.772;9.154;2023-08-21T20:03:26;33.00;61.00
9901;DHT22;4989;48.772;9.154;2023-08-21T20:08:29;32.90;61.10
9901;DHT22;4989;48.772;9.154;2023-08-21T20:13:32;32.90;60.80
9901;DHT22;4989;48.772;9.154;2023-08-21T20:18:38;32.90;60.80
9901;DHT22;4989;48.772;9.154;2023-08-21T20:23:40;32.90;61.00
9901;DHT22;4989;48.772;9.154;2023-08-21T20:28:43;32.70;61.50
9901;DHT22;4989;48.772;9.154;2023-08-21T20:33:45;32.70;61.50
9901;DHT22;4989;48.772;9.154;2023-08-21T20:38:47;32.60;61.80
9901;DHT22;4989;48.772;9.154;2023-08-21T20:43:49;32.60;61.70
9901;DHT22;4989;48.772;9.154;2023-08-21T20:48:52;32.60;61.80
9901;DHT22;4989;48.772;9.154;2023-08-21T20:53:54;32.20;63.10
9901;DHT22;4989;48.772;9.154;2023-08-21T20:58:56;32.30;62.90
9901;DHT22;4989;48.772;9.154;2023-08-21T21:03:58;32.30;62.90
9901;DHT22;4989;48.772;9.154;2023-08-21T21:09:01;31.90;63.20
9901;DHT22;4989;48.772;9.154;2023-08-21T21:14:05;31.90;63.50
9901;DHT22;4989;48.772;9.154;2023-08-21T21:19:08;32.20;63.10
9901;DHT22;4989;48.772;9.154;2023-08-21T21:24:10;31.90;63.80
9901;DHT22;4989;48.772;9.154;2023-08-21T21:29:14;31.80;64.00
9901;DHT22;4989;48.772;9.154;2023-08-21T21:34:17;31.90;63.90
